sensor_id;sensor_type;location;lat;lon;timestamp;temperature;humidity
12967;DHT22;6548;49.996;8.238;2022-12-01T00:00:28;5.90;99.90
12967;DHT22;6548;49.996;8.238;2022-12-01T00:02:53;5.50;99.90
12967;DHT22;6548;49.996;8.238;2022-12-01T00:05:19;6.80;99.90
12967;DHT22;6548;49.996;8.238;2022-12-01T00:07:47;5.80;99.90
12967;DHT22;6548;49.996;8.238;2022-12-01T00:10:13;6.50;99.90
12967;DHT22;6548;49.996;8.238;2022-12-01T00:12:55;5.80;99.90
12967;DHT22;6548;49.996;8.238;2022-12-01T00:15:24;5.90;99.90
12967;DHT22;6548;49.996;8.238;2022-12-01T00:17:50;5.50;99.90
12967;DHT22;6548;49.996;8.238;2022-12-01T00:20:16;5.70;99.90
12967;DHT22;6548;49.996;8.238;2022-12-01T00:22:43;5.80;99.90
12967;DHT22;6548;49.996;8.238;2022-12-01T00:25:10;5.70;99.90
12967;DHT22;6548;49.996;8.238;2022-12-01T00:27:35;5.70;99.90
12967;DHT22;6548;49.996;8.238;2022-12-01T00:30:01;5.70;99.90
12967;DHT22;6548;49.996;8.238;2022-12-01T00:32:29;5.70;99.90
12967;DHT22;6548;49.996;8.238;2022-12-01T00:34:55;6.60;99.90
12967;DHT22;6548;49.996;8.238;2022-12-01T00:37:20;6.00;99.90
12967;DHT22;6548;49.996;8.238;2022-12-01T00:39:46;5.50;99.90
12967;DHT22;6548;49.996;8.238;2022-12-01T00:42:11;5.60;99.90
12967;DHT22;6548;49.996;8.238;2022-12-01T00:44:37;5.30;99.90
12967;DHT22;6548;49.996;8.238;2022-12-01T00:47:03;5.40;99.90
12967;DHT22;6548;49.996;8.238;2022-12-01T00:49:28;6.50;99.90
12967;DHT22;6548;49.996;8.238;2022-12-01T00:51:54;7.00;99.90
12967;DHT22;6548;49.996;8.238;2022-12-01T00:54:19;5.50;99.90
12967;DHT22;6548;49.996;8.238;2022-12-01T00:56:45;7.00;99.90
12967;DHT22;6548;49.996;8.238;2022-12-01T00:59:10;5.40;99.90
12967;DHT22;6548;49.996;8.238;2022-12-01T01:01:36;5.60;99.90
12967;DHT22;6548;49.996;8.238;2022-12-01T01:04:02;5.50;99.90
12967;DHT22;6548;49.996;8.238;2022-12-01T01:06:28;5.60;99.90
12967;DHT22;6548;49.996;8.238;2022-12-01T01:08:54;5.40;99.90
12967;DHT22;6548;49.996;8.238;2022-12-01T01:11:19;5.60;99.90
12967;DHT22;6548;49.996;8.238;2022-12-01T01:13:45;5.70;99.90
12967;DHT22;6548;49.996;8.238;2022-12-01T01:16:17;5.60;99.90
12967;DHT22;6548;49.996;8.238;2022-12-01T01:18:44;5.60;99.90
12967;DHT22;6548;49.996;8.238;2022-12-01T01:21:12;6.20;99.90
12967;DHT22;6548;49.996;8.238;2022-12-01T01:23:38;6.10;99.90
12967;DHT22;6548;49.996;8.238;2022-12-01T01:26:13;7.10;99.90
12967;DHT22;6548;49.996;8.238;2022-12-01T01:28:39;5.20;99.90
12967;DHT22;6548;49.996;8.238;2022-12-01T01:31:08;4.90;99.90
12967;DHT22;6548;49.996;8.238;2022-12-01T01:33:35;4.70;99.90
12967;DHT22;6548;49.996;8.238;2022-12-01T01:36:01;6.50;99.90
12967;DHT22;6548;49.996;8.238;2022-12-01T01:38:27;4.80;99.90
12967;DHT22;6548;49.996;8.238;2022-12-01T01:40:53;4.70;99.90
12967;DHT22;6548;49.996;8.238;2022-12-01T01:43:47;5.40;99.90
12967;DHT22;6548;49.996;8.238;2022-12-01T01:46:28;4.60;99.90
12967;DHT22;6548;49.996;8.238;2022-12-01T01:49:14;4.60;99.90
12967;DHT22;6548;49.996;8.238;2022-12-01T01:51:44;4.60;99.90
12967;DHT22;6548;49.996;8.238;2022-12-01T01:54:23;4.50;99.90
12967;DHT22;6548;49.996;8.238;2022-12-01T01:56:50;4.50;99.90
12967;DHT22;6548;49.996;8.238;2022-12-01T01:59:23;4.50;99.90
12967;DHT22;6548;49.996;8.238;2022-12-01T02:01:56;5.30;99.90
12967;DHT22;6548;49.996;8.238;2022-12-01T02:04:24;4.30;99.90
12967;DHT22;6548;49.996;8.238;2022-12-01T02:06:51;5.40;99.90
12967;DHT22;6548;49.996;8.238;2022-12-01T02:09:17;4.30;99.90
12967;DHT22;6548;49.996;8.238;2022-12-01T02:15:02;4.50;99.90
12967;DHT22;6548;49.996;8.238;2022-12-01T02:25:19;4.40;99.90
12967;DHT22;6548;49.996;8.238;2022-12-01T02:33:40;4.00;99.90
12967;DHT22;6548;49.996;8.238;2022-12-01T02:38:51;4.20;99.90
12967;DHT22;6548;49.996;8.238;2022-12-01T02:41:42;4.30;99.90
12967;DHT22;6548;49.996;8.238;2022-12-01T02:44:29;5.90;99.90
12967;DHT22;6548;49.996;8.238;2022-12-01T02:47:03;5.80;99.90
12967;DHT22;6548;49.996;8.238;2022-12-01T02:49:41;5.00;99.90
12967;DHT22;6548;49.996;8.238;2022-12-01T02:52:10;4.30;99.90
12967;DHT22;6548;49.996;8.238;2022-12-01T02:54:38;4.10;99.90
12967;DHT22;6548;49.996;8.238;2022-12-01T02:57:04;4.30;99.90
12967;DHT22;6548;49.996;8.238;2022-12-01T02:59:29;6.10;99.90
12967;DHT22;6548;49.996;8.238;2022-12-01T03:07:50;4.30;99.90
12967;DHT22;6548;49.996;8.238;2022-12-01T03:15:57;4.30;99.90
12967;DHT22;6548;49.996;8.238;2022-12-01T03:18:35;4.40;99.90
12967;DHT22;6548;49.996;8.238;2022-12-01T03:23:30;4.30;99.90
12967;DHT22;6548;49.996;8.238;2022-12-01T03:25:59;4.40;99.90
12967;DHT22;6548;49.996;8.238;2022-12-01T03:28:33;5.20;99.90
12967;DHT22;6548;49.996;8.238;2022-12-01T03:31:02;4.30;99.90
12967;DHT22;6548;49.996;8.238;2022-12-01T03:33:37;4.40;99.90
12967;DHT22;6548;49.996;8.238;2022-12-01T03:36:09;5.90;99.90
12967;DHT22;6548;49.996;8.238;2022-12-01T03:38:43;4.30;99.90
12967;DHT22;6548;49.996;8.238;2022-12-01T03:41:15;4.30;99.90
12967;DHT22;6548;49.996;8.238;2022-12-01T03:43:48;4.30;99.90
12967;DHT22;6548;49.996;8.238;2022-12-01T03:46:38;4.30;99.90
12967;DHT22;6548;49.996;8.238;2022-12-01T03:49:07;4.40;99.90
12967;DHT22;6548;49.996;8.238;2022-12-01T03:51:43;6.00;99.90
12967;DHT22;6548;49.996;8.238;2022-12-01T03:54:21;4.50;99.90
12967;DHT22;6548;49.996;8.238;2022-12-01T03:56:54;4.50;99.90
12967;DHT22;6548;49.996;8.238;2022-12-01T03:59:23;4.50;99.90
12967;DHT22;6548;49.996;8.238;2022-12-01T04:01:49;5.40;99.90
12967;DHT22;6548;49.996;8.238;2022-12-01T04:04:15;4.50;99.90
12967;DHT22;6548;49.996;8.238;2022-12-01T04:06:44;4.40;99.90
12967;DHT22;6548;49.996;8.238;2022-12-01T04:09:11;5.10;99.90
12967;DHT22;6548;49.996;8.238;2022-12-01T04:11:37;4.40;99.90
12967;DHT22;6548;49.996;8.238;2022-12-01T11:21:31;5.20;99.90
12967;DHT22;6548;49.996;8.238;2022-12-01T11:23:57;5.40;99.90
12967;DHT22;6548;49.996;8.238;2022-12-01T11:26:26;5.80;99.90
12967;DHT22;6548;49.996;8.238;2022-12-01T11:31:47;5.90;99.90
12967;DHT22;6548;49.996;8.238;2022-12-01T11:34:23;6.10;99.90
12967;DHT22;6548;49.996;8.238;2022-12-01T11:36:53;6.40;99.90
12967;DHT22;6548;49.996;8.238;2022-12-01T11:42:30;6.00;99.90
12967;DHT22;6548;49.996;8.238;2022-12-01T11:47:30;5.90;99.90
12967;DHT22;6548;49.996;8.238;2022-12-01T11:50:01;6.10;99.90
12967;DHT22;6548;49.996;8.238;2022-12-01T11:52:35;6.20;99.90
12967;DHT22;6548;49.996;8.238;2022-12-01T11:57:42;5.90;99.90
12967;DHT22;6548;49.996;8.238;2022-12-01T12:00:46;5.90;99.90
12967;DHT22;6548;49.996;8.238;2022-12-01T12:03:28;6.00;99.90
12967;DHT22;6548;49.996;8.238;2022-12-01T12:06:28;6.00;99.90
12967;DHT22;6548;49.996;8.238;2022-12-01T12:14:53;5.60;99.90
12967;DHT22;6548;49.996;8.238;2022-12-01T12:20:37;5.60;99.90
12967;DHT22;6548;49.996;8.238;2022-12-01T12:23:24;5.60;99.90
12967;DHT22;6548;49.996;8.238;2022-12-01T12:26:05;5.80;99.90
12967;DHT22;6548;49.996;8.238;2022-12-01T12:31:38;5.70;99.90
12967;DHT22;6548;49.996;8.238;2022-12-01T12:53:03;5.60;99.90
12967;DHT22;6548;49.996;8.238;2022-12-01T12:58:18;5.50;99.90
12967;DHT22;6548;49.996;8.238;2022-12-01T13:01:02;5.70;99.90
12967;DHT22;6548;49.996;8.238;2022-12-01T13:03:49;5.70;99.90
12967;DHT22;6548;49.996;8.238;2022-12-01T13:06:40;5.90;99.90
12967;DHT22;6548;49.996;8.238;2022-12-01T13:09:16;5.80;99.90
12967;DHT22;6548;49.996;8.238;2022-12-01T13:11:52;5.80;99.90
12967;DHT22;6548;49.996;8.238;2022-12-01T13:14:37;5.90;99.90
12967;DHT22;6548;49.996;8.238;2022-12-01T13:17:34;6.10;99.90
12967;DHT22;6548;49.996;8.238;2022-12-01T13:20:01;6.30;99.90
12967;DHT22;6548;49.996;8.238;2022-12-01T13:22:32;6.50;99.90
12967;DHT22;6548;49.996;8.238;2022-12-01T13:24:59;6.60;99.90
12967;DHT22;6548;49.996;8.238;2022-12-01T13:27:28;7.20;99.90
12967;DHT22;6548;49.996;8.238;2022-12-01T13:29:58;6.30;99.90
12967;DHT22;6548;49.996;8.238;2022-12-01T13:32:35;6.30;99.90
12967;DHT22;6548;49.996;8.238;2022-12-01T13:35:28;6.80;99.90
12967;DHT22;6548;49.996;8.238;2022-12-01T13:37:51;6.10;99.90
12967;DHT22;6548;49.996;8.238;2022-12-01T13:43:04;6.60;99.90
12967;DHT22;6548;49.996;8.238;2022-12-01T13:45:33;6.80;99.90
12967;DHT22;6548;49.996;8.238;2022-12-01T13:48:00;6.70;99.90
12967;DHT22;6548;49.996;8.238;2022-12-01T13:53:24;6.10;99.90
12967;DHT22;6548;49.996;8.238;2022-12-01T14:06:41;5.90;99.90
12967;DHT22;6548;49.996;8.238;2022-12-01T14:09:19;5.90;99.90
12967;DHT22;6548;49.996;8.238;2022-12-01T14:14:31;6.00;99.90
12967;DHT22;6548;49.996;8.238;2022-12-01T14:16:59;5.90;99.90
12967;DHT22;6548;49.996;8.238;2022-12-01T14:21:59;6.20;99.90
12967;DHT22;6548;49.996;8.238;2022-12-01T14:24:34;6.30;99.90
12967;DHT22;6548;49.996;8.238;2022-12-01T14:27:02;6.50;99.90
12967;DHT22;6548;49.996;8.238;2022-12-01T14:29:31;6.50;99.90
12967;DHT22;6548;49.996;8.238;2022-12-01T14:34:29;6.50;99.90
12967;DHT22;6548;49.996;8.238;2022-12-01T14:37:12;6.40;99.90
12967;DHT22;6548;49.996;8.238;2022-12-01T14:39:40;6.40;99.90
12967;DHT22;6548;49.996;8.238;2022-12-01T14:44:38;6.30;99.90
12967;DHT22;6548;49.996;8.238;2022-12-01T14:50:02;6.10;99.90
12967;DHT22;6548;49.996;8.238;2022-12-01T14:52:34;6.10;99.90
12967;DHT22;6548;49.996;8.238;2022-12-01T14:55:11;6.10;99.90
12967;DHT22;6548;49.996;8.238;2022-12-01T14:57:40;6.00;99.90
12967;DHT22;6548;49.996;8.238;2022-12-01T15:02:54;5.90;99.90
12967;DHT22;6548;49.996;8.238;2022-12-01T15:05:25;5.90;99.90
12967;DHT22;6548;49.996;8.238;2022-12-01T15:07:53;5.80;99.90
12967;DHT22;6548;49.996;8.238;2022-12-01T15:12:47;5.80;99.90
12967;DHT22;6548;49.996;8.238;2022-12-01T15:15:19;5.70;99.90
12967;DHT22;6548;49.996;8.238;2022-12-01T15:17:45;5.70;99.90
12967;DHT22;6548;49.996;8.238;2022-12-01T15:20:27;5.60;99.90
12967;DHT22;6548;49.996;8.238;2022-12-01T15:22:54;5.50;99.90
12967;DHT22;6548;49.996;8.238;2022-12-01T15:25:20;5.50;99.90
12967;DHT22;6548;49.996;8.238;2022-12-01T15:27:45;5.40;99.90
12967;DHT22;6548;49.996;8.238;2022-12-01T15:30:25;5.30;99.90
12967;DHT22;6548;49.996;8.238;2022-12-01T15:32:51;5.30;99.90
12967;DHT22;6548;49.996;8.238;2022-12-01T15:35:20;5.30;99.90
12967;DHT22;6548;49.996;8.238;2022-12-01T15:37:47;5.30;99.90
12967;DHT22;6548;49.996;8.238;2022-12-01T15:40:18;5.40;99.90
12967;DHT22;6548;49.996;8.238;2022-12-01T15:42:53;5.40;99.90
12967;DHT22;6548;49.996;8.238;2022-12-01T15:45:23;5.30;99.90
12967;DHT22;6548;49.996;8.238;2022-12-01T15:47:52;5.40;99.90
12967;DHT22;6548;49.996;8.238;2022-12-01T15:50:38;5.30;99.90
12967;DHT22;6548;49.996;8.238;2022-12-01T15:53:26;5.40;99.90
12967;DHT22;6548;49.996;8.238;2022-12-01T15:55:54;5.30;99.90
12967;DHT22;6548;49.996;8.238;2022-12-01T15:58:23;5.40;99.90
12967;DHT22;6548;49.996;8.238;2022-12-01T16:01:09;5.40;99.90
12967;DHT22;6548;49.996;8.238;2022-12-01T16:03:57;5.40;99.90
12967;DHT22;6548;49.996;8.238;2022-12-01T16:06:29;5.40;99.90
12967;DHT22;6548;49.996;8.238;2022-12-01T16:14:32;5.30;99.90
12967;DHT22;6548;49.996;8.238;2022-12-01T16:16:59;5.40;99.90
12967;DHT22;6548;49.996;8.238;2022-12-01T16:19:30;5.30;99.90
12967;DHT22;6548;49.996;8.238;2022-12-01T16:24:52;5.20;99.90
12967;DHT22;6548;49.996;8.238;2022-12-01T16:27:25;5.10;99.90
12967;DHT22;6548;49.996;8.238;2022-12-01T16:32:39;5.10;99.90
12967;DHT22;6548;49.996;8.238;2022-12-01T16:35:20;5.10;99.90
12967;DHT22;6548;49.996;8.238;2022-12-01T16:37:46;5.00;99.90
12967;DHT22;6548;49.996;8.238;2022-12-01T16:40:12;5.00;99.90
12967;DHT22;6548;49.996;8.238;2022-12-01T16:42:38;5.00;99.90
12967;DHT22;6548;49.996;8.238;2022-12-01T16:45:04;4.90;99.90
12967;DHT22;6548;49.996;8.238;2022-12-01T16:47:31;5.00;99.90
12967;DHT22;6548;49.996;8.238;2022-12-01T16:49:56;5.00;99.90
12967;DHT22;6548;49.996;8.238;2022-12-01T16:52:22;4.90;99.90
12967;DHT22;6548;49.996;8.238;2022-12-01T16:54:48;4.90;99.90
12967;DHT22;6548;49.996;8.238;2022-12-01T16:57:14;4.80;99.90
12967;DHT22;6548;49.996;8.238;2022-12-01T16:59:42;4.80;99.90
12967;DHT22;6548;49.996;8.238;2022-12-01T17:02:09;4.80;99.90
12967;DHT22;6548;49.996;8.238;2022-12-01T17:04:35;4.70;99.90
12967;DHT22;6548;49.996;8.238;2022-12-01T17:07:00;4.60;99.90
12967;DHT22;6548;49.996;8.238;2022-12-01T17:09:26;4.60;99.90
12967;DHT22;6548;49.996;8.238;2022-12-01T17:11:52;4.50;99.90
12967;DHT22;6548;49.996;8.238;2022-12-01T17:14:21;4.40;99.90
12967;DHT22;6548;49.996;8.238;2022-12-01T17:16:47;4.40;99.90
12967;DHT22;6548;49.996;8.238;2022-12-01T17:19:13;4.40;99.90
12967;DHT22;6548;49.996;8.238;2022-12-01T17:21:38;4.30;99.90
12967;DHT22;6548;49.996;8.238;2022-12-01T17:24:04;4.30;99.90
12967;DHT22;6548;49.996;8.238;2022-12-01T17:26:30;4.20;99.90
12967;DHT22;6548;49.996;8.238;2022-12-01T17:28:55;4.20;99.90
12967;DHT22;6548;49.996;8.238;2022-12-01T17:31:21;4.10;99.90
12967;DHT22;6548;49.996;8.238;2022-12-01T17:33:47;4.10;99.90
12967;DHT22;6548;49.996;8.238;2022-12-01T17:36:13;4.00;99.90
12967;DHT22;6548;49.996;8.238;2022-12-01T17:38:40;3.90;99.90
12967;DHT22;6548;49.996;8.238;2022-12-01T17:41:08;3.90;99.90
12967;DHT22;6548;49.996;8.238;2022-12-01T17:43:36;3.80;99.90
12967;DHT22;6548;49.996;8.238;2022-12-01T17:46:03;3.80;99.90
12967;DHT22;6548;49.996;8.238;2022-12-01T17:48:37;3.80;99.90
12967;DHT22;6548;49.996;8.238;2022-12-01T17:51:04;3.80;99.90
12967;DHT22;6548;49.996;8.238;2022-12-01T17:53:29;3.70;99.90
12967;DHT22;6548;49.996;8.238;2022-12-01T17:55:55;3.70;99.90
12967;DHT22;6548;49.996;8.238;2022-12-01T17:58:21;3.70;99.90
12967;DHT22;6548;49.996;8.238;2022-12-01T18:00:48;3.60;99.90
12967;DHT22;6548;49.996;8.238;2022-12-01T18:03:14;3.60;99.90
12967;DHT22;6548;49.996;8.238;2022-12-01T18:05:40;3.60;99.90
12967;DHT22;6548;49.996;8.238;2022-12-01T18:08:05;3.60;99.90
12967;DHT22;6548;49.996;8.238;2022-12-01T18:10:31;4.20;99.90
12967;DHT22;6548;49.996;8.238;2022-12-01T18:12:57;3.50;99.90
12967;DHT22;6548;49.996;8.238;2022-12-01T18:15:22;3.40;99.90
12967;DHT22;6548;49.996;8.238;2022-12-01T18:17:50;3.40;99.90
12967;DHT22;6548;49.996;8.238;2022-12-01T18:20:17;3.40;99.90
12967;DHT22;6548;49.996;8.238;2022-12-01T18:22:43;3.40;99.90
12967;DHT22;6548;49.996;8.238;2022-12-01T18:25:08;3.40;99.90
12967;DHT22;6548;49.996;8.238;2022-12-01T18:27:34;3.40;99.90
12967;DHT22;6548;49.996;8.238;2022-12-01T18:30:00;3.30;99.90
12967;DHT22;6548;49.996;8.238;2022-12-01T18:32:25;3.30;99.90
12967;DHT22;6548;49.996;8.238;2022-12-01T18:34:51;3.40;99.90
12967;DHT22;6548;49.996;8.238;2022-12-01T18:37:16;3.30;99.90
12967;DHT22;6548;49.996;8.238;2022-12-01T18:39:42;3.30;99.90
12967;DHT22;6548;49.996;8.238;2022-12-01T18:42:07;3.30;99.90
12967;DHT22;6548;49.996;8.238;2022-12-01T18:44:33;3.30;99.90
12967;DHT22;6548;49.996;8.238;2022-12-01T18:46:58;3.20;99.90
12967;DHT22;6548;49.996;8.238;2022-12-01T18:49:26;3.30;99.90
12967;DHT22;6548;49.996;8.238;2022-12-01T18:51:52;3.30;99.90
12967;DHT22;6548;49.996;8.238;2022-12-01T18:54:17;3.20;99.90
12967;DHT22;6548;49.996;8.238;2022-12-01T18:56:44;3.20;99.90
12967;DHT22;6548;49.996;8.238;2022-12-01T18:59:10;3.20;99.90
12967;DHT22;6548;49.996;8.238;2022-12-01T19:01:41;3.20;99.90
12967;DHT22;6548;49.996;8.238;2022-12-01T19:04:07;3.20;99.90
12967;DHT22;6548;49.996;8.238;2022-12-01T19:06:35;3.10;99.90
12967;DHT22;6548;49.996;8.238;2022-12-01T19:09:03;3.10;99.90
12967;DHT22;6548;49.996;8.238;2022-12-01T19:11:29;3.10;99.90
12967;DHT22;6548;49.996;8.238;2022-12-01T19:13:56;3.00;99.90
12967;DHT22;6548;49.996;8.238;2022-12-01T19:16:22;3.10;99.90
12967;DHT22;6548;49.996;8.238;2022-12-01T19:18:48;3.00;99.90
12967;DHT22;6548;49.996;8.238;2022-12-01T19:21:17;3.00;99.90
12967;DHT22;6548;49.996;8.238;2022-12-01T19:23:44;3.00;99.90
12967;DHT22;6548;49.996;8.238;2022-12-01T19:26:15;3.50;99.90
12967;DHT22;6548;49.996;8.238;2022-12-01T19:28:41;3.00;99.90
12967;DHT22;6548;49.996;8.238;2022-12-01T19:31:12;3.00;99.90
12967;DHT22;6548;49.996;8.238;2022-12-01T19:33:38;3.00;99.90
12967;DHT22;6548;49.996;8.238;2022-12-01T19:36:12;1.90;99.90
12967;DHT22;6548;49.996;8.238;2022-12-01T19:38:38;3.00;99.90
12967;DHT22;6548;49.996;8.238;2022-12-01T19:41:05;3.00;99.90
12967;DHT22;6548;49.996;8.238;2022-12-01T19:43:33;4.00;99.90
12967;DHT22;6548;49.996;8.238;2022-12-01T19:46:10;3.10;99.90
12967;DHT22;6548;49.996;8.238;2022-12-01T19:48:36;3.10;99.90
12967;DHT22;6548;49.996;8.238;2022-12-01T19:51:03;3.10;99.90
12967;DHT22;6548;49.996;8.238;2022-12-01T19:53:29;3.20;99.90
12967;DHT22;6548;49.996;8.238;2022-12-01T19:56:01;3.50;99.90
12967;DHT22;6548;49.996;8.238;2022-12-01T19:58:27;3.20;99.90
12967;DHT22;6548;49.996;8.238;2022-12-01T20:00:53;3.20;99.90
12967;DHT22;6548;49.996;8.238;2022-12-01T20:03:18;3.30;99.90
12967;DHT22;6548;49.996;8.238;2022-12-01T20:05:44;3.30;99.90
12967;DHT22;6548;49.996;8.238;2022-12-01T20:08:09;3.30;99.90
12967;DHT22;6548;49.996;8.238;2022-12-01T20:10:45;3.40;99.90
12967;DHT22;6548;49.996;8.238;2022-12-01T20:13:11;3.40;99.90
12967;DHT22;6548;49.996;8.238;2022-12-01T20:15:37;4.30;99.90
12967;DHT22;6548;49.996;8.238;2022-12-01T20:18:03;3.40;99.90
12967;DHT22;6548;49.996;8.238;2022-12-01T20:20:28;3.50;99.90
12967;DHT22;6548;49.996;8.238;2022-12-01T20:22:54;3.60;99.90
12967;DHT22;6548;49.996;8.238;2022-12-01T20:25:19;3.60;99.90
12967;DHT22;6548;49.996;8.238;2022-12-01T20:27:45;3.60;99.90
12967;DHT22;6548;49.996;8.238;2022-12-01T20:30:11;3.60;99.90
12967;DHT22;6548;49.996;8.238;2022-12-01T20:32:37;3.70;99.90
12967;DHT22;6548;49.996;8.238;2022-12-01T20:35:03;4.30;99.90
12967;DHT22;6548;49.996;8.238;2022-12-01T20:37:29;3.80;99.90
12967;DHT22;6548;49.996;8.238;2022-12-01T20:39:54;3.70;99.90
12967;DHT22;6548;49.996;8.238;2022-12-01T20:42:20;3.80;99.90
12967;DHT22;6548;49.996;8.238;2022-12-01T20:44:48;3.80;99.90
12967;DHT22;6548;49.996;8.238;2022-12-01T20:47:14;3.90;99.90
12967;DHT22;6548;49.996;8.238;2022-12-01T20:49:43;3.90;99.90
12967;DHT22;6548;49.996;8.238;2022-12-01T20:52:09;3.90;99.90
12967;DHT22;6548;49.996;8.238;2022-12-01T20:54:34;3.90;99.90
12967;DHT22;6548;49.996;8.238;2022-12-01T20:57:00;3.90;99.90
12967;DHT22;6548;49.996;8.238;2022-12-01T20:59:26;3.80;99.90
12967;DHT22;6548;49.996;8.238;2022-12-01T21:01:52;3.80;99.90
12967;DHT22;6548;49.996;8.238;2022-12-01T21:04:17;3.80;99.90
12967;DHT22;6548;49.996;8.238;2022-12-01T21:06:46;3.80;99.90
12967;DHT22;6548;49.996;8.238;2022-12-01T21:09:11;3.90;99.90
12967;DHT22;6548;49.996;8.238;2022-12-01T21:11:47;3.90;99.90
12967;DHT22;6548;49.996;8.238;2022-12-01T21:14:47;3.90;99.90
12967;DHT22;6548;49.996;8.238;2022-12-01T21:17:34;4.00;99.90
12967;DHT22;6548;49.996;8.238;2022-12-01T21:20:46;4.00;99.90
12967;DHT22;6548;49.996;8.238;2022-12-01T21:22:59;4.00;99.90
12967;DHT22;6548;49.996;8.238;2022-12-01T21:25:25;4.00;99.90
12967;DHT22;6548;49.996;8.238;2022-12-01T21:27:51;4.10;99.90
12967;DHT22;6548;49.996;8.238;2022-12-01T21:30:23;4.10;99.90
12967;DHT22;6548;49.996;8.238;2022-12-01T21:32:54;4.00;99.90
12967;DHT22;6548;49.996;8.238;2022-12-01T21:35:24;4.00;99.90
12967;DHT22;6548;49.996;8.238;2022-12-01T21:37:55;4.00;99.90
12967;DHT22;6548;49.996;8.238;2022-12-01T21:40:24;4.10;99.90
12967;DHT22;6548;49.996;8.238;2022-12-01T21:42:51;4.10;99.90
12967;DHT22;6548;49.996;8.238;2022-12-01T21:45:28;4.10;99.90
12967;DHT22;6548;49.996;8.238;2022-12-01T21:48:04;4.10;99.90
12967;DHT22;6548;49.996;8.238;2022-12-01T21:50:30;5.10;99.90
12967;DHT22;6548;49.996;8.238;2022-12-01T21:52:57;4.20;99.90
12967;DHT22;6548;49.996;8.238;2022-12-01T21:57:50;4.10;99.90
12967;DHT22;6548;49.996;8.238;2022-12-01T22:00:33;4.10;99.90
12967;DHT22;6548;49.996;8.238;2022-12-01T22:03:32;4.10;99.90
12967;DHT22;6548;49.996;8.238;2022-12-01T22:08:51;4.20;99.90
12967;DHT22;6548;49.996;8.238;2022-12-01T22:11:19;4.20;99.90
12967;DHT22;6548;49.996;8.238;2022-12-01T22:13:48;4.20;99.90
12967;DHT22;6548;49.996;8.238;2022-12-01T22:16:21;4.20;99.90
12967;DHT22;6548;49.996;8.238;2022-12-01T22:18:55;4.20;99.90
12967;DHT22;6548;49.996;8.238;2022-12-01T22:26:58;4.20;99.90
12967;DHT22;6548;49.996;8.238;2022-12-01T22:29:28;4.20;99.90
12967;DHT22;6548;49.996;8.238;2022-12-01T22:34:39;4.20;99.90
12967;DHT22;6548;49.996;8.238;2022-12-01T22:37:43;4.10;99.90
12967;DHT22;6548;49.996;8.238;2022-12-01T22:40:42;4.00;99.90
12967;DHT22;6548;49.996;8.238;2022-12-01T22:45:59;4.20;99.90
12967;DHT22;6548;49.996;8.238;2022-12-01T22:48:48;4.20;99.90
12967;DHT22;6548;49.996;8.238;2022-12-01T22:51:15;4.20;99.90
12967;DHT22;6548;49.996;8.238;2022-12-01T22:53:44;4.20;99.90
12967;DHT22;6548;49.996;8.238;2022-12-01T22:56:28;4.20;99.90
12967;DHT22;6548;49.996;8.238;2022-12-01T22:58:54;4.20;99.90
12967;DHT22;6548;49.996;8.238;2022-12-01T23:01:29;4.10;99.90
12967;DHT22;6548;49.996;8.238;2022-12-01T23:06:54;4.00;99.90
12967;DHT22;6548;49.996;8.238;2022-12-01T23:09:22;4.10;99.90
12967;DHT22;6548;49.996;8.238;2022-12-01T23:11:58;4.00;99.90
12967;DHT22;6548;49.996;8.238;2022-12-01T23:14:24;4.00;99.90
12967;DHT22;6548;49.996;8.238;2022-12-01T23:17:05;4.00;99.90
